Terminal Aerodrome Forecast
Issued by NWS Cleveland, OH

Home | Current Version | Previous Version | Text Only | Print | Product List | Glossary Off
Versions: 1 2 3 4 5 6 7 8 9 10 11 12 13 14 15 16 17 18

000
FTUS41 KCLE 232335
TAFMFD
TAF
KMFD 232335Z 2400/2424 15010KT P6SM BKN200
     FM240600 18011KT P6SM VCSH OVC050
     FM240800 19013KT P6SM OVC070 WS020/23045KT
     FM241600 22019G27KT P6SM BKN045
     FM242300 21014KT P6SM BKN045=

USA.gov is the U.S. government's official web portal to all federal, state and local government web resources and services.